Aérodrome :
LOGIN :

S'inscrire | Disclaimer

   EN    FR    IT 

 










Légende :    VFR   VFR Marginal   IFR   IFR Intensif   IFR Très Intensif
Visi : 
Plafond : 
>= 8 km
>= 3000ft
5 à 8 km
1000 à 3000 ft
1500m à 5 km
500 à 1000 ft
800 à 1500m
200 à 500 ft
< 800m
< 200 ft
Symboles :   Orages  Brouillard  Fortes neiges  Fortes précipitations  Vent > 20 kt
SIGMETs :   Divers  Orages  Givrage  Turbulence  Onde Orograph.  Cendres Volcan.






- Altitude de l'aérodrome : 526 ft
- Code IATA : LTN


EGGW - London Luton

DERNIER METAR :
  • 070220Z AUTO 33009KT 6000 BKN003 OVC030 02/01 Q1023

METARs EXPIRÉS :
  • 070150Z AUTO 31006KT 6000 OVC003 02/01 Q1023
  • 070120Z AUTO 32007KT 7000 OVC003 01/01 Q1023
  • 070050Z AUTO 32005KT 8000 OVC004 01/01 Q1023
  • 070020Z AUTO 33007KT 9000 BKN004 01/01 Q1023
  • 062350Z AUTO 33007KT 9999 BKN004 01/01 Q1023

TAF TAF EGGW
Valide du 07 à 00h jusqu'au 08 à 00h UTC


062301Z 0700/0724 34007KT 9999 BKN006
TEMPO 0700/0709 8000 BKN004
BECMG 0709/0712 FEW020
ATIS : +44 1582 395 204



MET'MAP, la Météo Aéronautique d'un coup d'oeil ! - Copyright ORBIFLY Décembre 2007 - Disclaimer

ORBIFLY MET'MAP TEAM :

Programmation & Développement : Alexandra Zaïnal
Sur une idée originale de : Baudouin d'Aumeries
Soutien technique & logistique : Manuel Goepfert
Assistance : Marc-Olivier Méhu




SOURCES & CREDITS :

   NOAA